createdAt,value
2018-10-17T00:01:41.526Z,17.13
2018-10-17T00:04:12.309Z,15.80
2018-10-17T00:06:43.120Z,15.73
2018-10-17T00:09:13.956Z,16.97
2018-10-17T00:11:45.732Z,16.37
2018-10-17T00:14:16.746Z,15.23
2018-10-17T00:16:47.577Z,16.50
2018-10-17T00:19:18.704Z,16.73
2018-10-17T00:21:49.894Z,16.33
2018-10-17T00:24:20.752Z,16.73
2018-10-17T00:26:51.622Z,16.17
2018-10-17T00:29:22.444Z,16.47
2018-10-17T00:31:53.293Z,15.67
2018-10-17T00:34:24.148Z,15.87
2018-10-17T00:36:55.067Z,16.67
2018-10-17T00:39:25.830Z,16.17
2018-10-17T00:41:56.638Z,16.47
2018-10-17T00:44:27.635Z,16.00
2018-10-17T00:46:58.539Z,16.40
2018-10-17T00:49:29.372Z,15.73
2018-10-17T00:52:00.251Z,16.50
2018-10-17T00:54:31.035Z,17.00
2018-10-17T00:57:02.162Z,17.03
2018-10-17T00:59:32.965Z,16.87
2018-10-17T01:02:03.739Z,16.77
2018-10-17T01:04:34.533Z,16.33
2018-10-17T01:07:06.010Z,18.37
2018-10-17T01:09:36.769Z,17.70
2018-10-17T01:12:07.625Z,17.10
2018-10-17T01:14:38.412Z,16.93
2018-10-17T01:17:09.240Z,17.93
2018-10-17T01:19:39.977Z,17.47
2018-10-17T01:22:10.833Z,17.23
2018-10-17T01:24:41.728Z,16.63
2018-10-17T01:27:12.423Z,16.70
2018-10-17T01:29:54.246Z,17.20
2018-10-17T01:32:30.730Z,17.13
2018-10-17T01:35:01.564Z,16.87
2018-10-17T01:37:32.297Z,16.50
2018-10-17T01:40:03.057Z,16.07
2018-10-17T01:42:33.795Z,18.03
2018-10-17T01:45:04.773Z,16.87
2018-10-17T01:47:35.536Z,17.63
2018-10-17T01:50:07.893Z,17.57
2018-10-17T01:52:38.612Z,16.90
2018-10-17T01:55:09.444Z,17.10
2018-10-17T01:57:40.387Z,16.37
2018-10-17T02:00:11.251Z,16.60
2018-10-17T02:02:42.105Z,16.67
2018-10-17T02:05:13.012Z,17.63
2018-10-17T02:07:43.732Z,16.83
2018-10-17T02:10:14.550Z,16.97
2018-10-17T02:12:45.300Z,16.90
2018-10-17T02:15:16.099Z,15.20
2018-10-17T02:17:46.829Z,17.17
2018-10-17T02:20:17.786Z,16.77
2018-10-17T02:22:48.659Z,16.27
2018-10-17T02:25:19.454Z,16.40
2018-10-17T02:27:50.236Z,17.40
2018-10-17T02:30:21.086Z,16.97
2018-10-17T02:32:51.977Z,16.83
2018-10-17T02:35:22.734Z,17.03
2018-10-17T02:37:53.512Z,16.93
2018-10-17T02:40:24.342Z,17.20
2018-10-17T02:42:55.358Z,16.67
2018-10-17T02:45:26.197Z,17.13
2018-10-17T02:47:57.038Z,15.60
2018-10-17T02:50:27.966Z,16.73
2018-10-17T02:52:58.904Z,17.23
2018-10-17T02:55:29.729Z,17.87
2018-10-17T02:58:00.522Z,17.33
2018-10-17T03:00:31.610Z,17.10
2018-10-17T03:03:02.535Z,16.10
2018-10-17T03:05:33.399Z,16.53
2018-10-17T03:08:04.525Z,18.17
2018-10-17T03:10:35.307Z,23.40
2018-10-17T03:13:06.460Z,19.33
2018-10-17T03:15:37.394Z,16.77
2018-10-17T03:18:08.353Z,16.30
2018-10-17T03:20:39.639Z,16.30
2018-10-17T03:23:10.550Z,15.40
2018-10-17T03:25:41.709Z,16.73
2018-10-17T03:28:12.573Z,17.17
2018-10-17T03:30:43.580Z,16.63
2018-10-17T03:33:14.546Z,16.43
2018-10-17T03:35:45.565Z,16.40
2018-10-17T03:38:16.401Z,16.30
2018-10-17T03:40:47.190Z,15.70
2018-10-17T03:43:18.197Z,16.20
2018-10-17T03:45:49.096Z,15.53
2018-10-17T03:48:20.141Z,15.33
2018-10-17T03:50:51.161Z,16.37
2018-10-17T03:53:22.100Z,15.57
2018-10-17T03:55:53.149Z,17.03
2018-10-17T03:58:24.193Z,15.73
2018-10-17T04:00:55.096Z,15.40
2018-10-17T04:03:26.061Z,15.57
2018-10-17T04:05:56.938Z,15.43
2018-10-17T04:08:28.112Z,15.80
2018-10-17T04:10:59.234Z,15.70
2018-10-17T04:13:30.107Z,15.73
2018-10-17T04:16:01.030Z,14.93
2018-10-17T04:18:31.989Z,15.03
2018-10-17T04:21:02.962Z,16.37
2018-10-17T04:23:33.828Z,14.97
2018-10-17T04:26:04.857Z,15.13
2018-10-17T04:28:35.937Z,14.53
2018-10-17T04:31:07.032Z,14.40
2018-10-17T04:33:37.790Z,15.73
2018-10-17T04:36:08.925Z,14.30
2018-10-17T04:38:39.773Z,14.67
2018-10-17T04:41:10.728Z,15.37
2018-10-17T04:43:41.727Z,15.00
2018-10-17T04:46:12.722Z,15.07
2018-10-17T04:48:43.654Z,15.10
2018-10-17T04:51:14.473Z,14.53
2018-10-17T04:53:45.383Z,14.77
2018-10-17T04:56:16.265Z,14.67
2018-10-17T04:58:47.283Z,14.90
2018-10-17T05:01:18.180Z,14.83
2018-10-17T05:03:49.299Z,19.07
2018-10-17T05:06:20.327Z,18.87
2018-10-17T05:08:51.680Z,16.43
2018-10-17T05:11:22.758Z,15.80
2018-10-17T05:13:54.250Z,15.27
2018-10-17T05:16:25.206Z,13.70
2018-10-17T05:18:56.293Z,13.60
2018-10-17T05:21:27.527Z,14.37
2018-10-17T05:23:58.600Z,13.47
2018-10-17T05:26:29.653Z,13.30
2018-10-17T05:29:00.785Z,14.17
2018-10-17T05:31:31.747Z,14.40
2018-10-17T05:34:02.718Z,14.30
2018-10-17T05:36:34.073Z,13.57
2018-10-17T05:39:06.203Z,14.57
2018-10-17T05:41:37.164Z,13.40
2018-10-17T05:44:08.135Z,12.50
2018-10-17T05:46:39.080Z,42.40
2018-10-17T05:49:09.992Z,54.43
2018-10-17T05:51:41.048Z,76.60
2018-10-17T05:54:12.367Z,56.93
2018-10-17T05:56:43.538Z,29.33
2018-10-17T05:59:14.613Z,15.70
2018-10-17T06:01:45.771Z,13.40
2018-10-17T06:04:16.975Z,14.70
2018-10-17T06:06:47.990Z,13.93
2018-10-17T06:09:19.201Z,12.83
2018-10-17T06:11:50.236Z,13.80
2018-10-17T06:14:21.264Z,13.77
2018-10-17T06:16:52.557Z,14.43
2018-10-17T06:19:23.654Z,15.57
2018-10-17T06:21:54.881Z,16.37
2018-10-17T06:24:26.082Z,16.23
2018-10-17T06:26:58.261Z,17.37
2018-10-17T06:29:29.334Z,17.67
2018-10-17T06:32:00.451Z,17.53
2018-10-17T06:34:31.547Z,17.37
2018-10-17T06:37:02.800Z,16.90
2018-10-17T06:39:33.890Z,16.13
2018-10-17T06:42:05.644Z,16.57
2018-10-17T06:44:36.980Z,17.27
2018-10-17T06:47:08.970Z,16.73
2018-10-17T06:49:40.024Z,17.53
2018-10-17T07:06:10.644Z,16.37
2018-10-17T07:08:42.804Z,15.00
2018-10-17T07:11:15.736Z,16.10
2018-10-17T07:13:47.866Z,15.13
2018-10-17T07:16:20.500Z,15.70
2018-10-17T07:18:52.700Z,15.10
2018-10-17T07:21:25.632Z,15.27
2018-10-17T07:23:58.042Z,16.33
2018-10-17T07:26:31.360Z,16.50
2018-10-17T07:29:03.841Z,16.80
2018-10-17T07:31:35.910Z,15.80
2018-10-17T07:34:08.016Z,16.00
2018-10-17T07:36:40.662Z,16.67
2018-10-17T07:39:12.986Z,15.43
2018-10-17T07:41:44.999Z,15.77
2018-10-17T07:44:17.027Z,17.27
2018-10-17T07:46:49.322Z,16.80
2018-10-17T07:49:21.563Z,16.27
2018-10-17T07:51:53.792Z,15.43
2018-10-17T07:54:25.870Z,15.77
2018-10-17T07:56:57.899Z,16.07
2018-10-17T07:59:29.998Z,15.80
2018-10-17T08:02:01.998Z,16.33
2018-10-17T08:04:33.869Z,17.07
2018-10-17T08:07:06.619Z,17.77
2018-10-17T08:09:38.927Z,15.20
2018-10-17T08:12:11.124Z,12.03
2018-10-17T08:14:43.640Z,12.70
2018-10-17T08:17:15.891Z,13.53
2018-10-17T08:19:48.176Z,11.30
2018-10-17T08:22:20.413Z,11.83
2018-10-17T08:24:52.474Z,11.57
2018-10-17T08:27:24.549Z,13.13
2018-10-17T08:29:56.544Z,11.57
2018-10-17T08:32:28.617Z,13.00
2018-10-17T08:35:00.737Z,12.50
2018-10-17T08:37:33.683Z,12.20
2018-10-17T08:40:06.409Z,12.23
2018-10-17T08:42:38.473Z,15.43
2018-10-17T08:45:10.611Z,13.97
2018-10-17T08:47:43.132Z,13.30
2018-10-17T08:50:15.063Z,11.40
2018-10-17T08:52:46.983Z,12.17
2018-10-17T08:55:18.905Z,13.20
2018-10-17T08:57:50.831Z,12.70
2018-10-17T09:00:22.732Z,11.60
2018-10-17T09:02:54.757Z,12.53
2018-10-17T09:05:27.367Z,11.60
2018-10-17T09:08:00.469Z,13.67
2018-10-17T09:10:32.540Z,13.80
2018-10-17T09:13:04.579Z,13.97
2018-10-17T09:15:38.541Z,13.50
2018-10-17T09:18:09.122Z,12.97
2018-10-17T09:20:41.346Z,11.83
2018-10-17T09:23:13.411Z,11.87
2018-10-17T09:25:45.667Z,12.50
2018-10-17T09:28:17.689Z,12.77
2018-10-17T09:30:50.356Z,11.80
2018-10-17T09:33:22.495Z,11.23
2018-10-17T09:35:54.605Z,11.10
2018-10-17T09:38:26.583Z,11.67
2018-10-17T09:40:58.508Z,11.13
2018-10-17T09:43:30.354Z,10.33
2018-10-17T09:46:03.062Z,10.30
2018-10-17T09:48:34.888Z,9.80
2018-10-17T09:51:07.024Z,9.53
2018-10-17T09:53:38.970Z,9.00
2018-10-17T09:56:12.394Z,9.63
2018-10-17T09:58:44.162Z,8.93
2018-10-17T10:01:20.795Z,9.07
2018-10-17T10:03:52.550Z,10.03
2018-10-17T10:06:24.678Z,10.40
2018-10-17T10:08:56.628Z,9.97
2018-10-17T10:11:28.506Z,10.23
2018-10-17T10:14:00.703Z,9.57
2018-10-17T10:16:32.748Z,9.90
2018-10-17T10:19:04.595Z,8.90
2018-10-17T10:21:36.553Z,8.77
2018-10-17T10:24:08.428Z,9.23
2018-10-17T10:26:40.572Z,8.70
2018-10-17T10:29:12.755Z,9.70
2018-10-17T10:31:44.891Z,8.67
2018-10-17T10:34:17.311Z,9.63
2018-10-17T10:36:49.529Z,9.10
2018-10-17T10:39:22.572Z,8.70
2018-10-17T10:41:55.225Z,7.17
2018-10-17T10:44:27.568Z,7.80
2018-10-17T10:46:59.717Z,8.23
2018-10-17T10:49:31.695Z,7.80
2018-10-17T10:52:03.594Z,8.00
2018-10-17T10:54:35.630Z,7.40
2018-10-17T10:57:07.785Z,8.60
2018-10-17T10:59:40.112Z,6.50
2018-10-17T11:02:11.918Z,7.37
2018-10-17T11:04:43.859Z,7.33
2018-10-17T11:07:16.082Z,7.50
2018-10-17T11:09:48.720Z,7.10
2018-10-17T11:12:21.162Z,7.80
2018-10-17T11:14:53.764Z,6.97
2018-10-17T11:17:25.789Z,7.20
2018-10-17T11:19:57.584Z,7.23
2018-10-17T11:22:29.476Z,6.80
2018-10-17T11:25:01.325Z,6.77
2018-10-17T11:27:33.623Z,7.37
2018-10-17T11:30:06.518Z,6.37
2018-10-17T11:32:38.650Z,6.53
2018-10-17T11:35:11.737Z,6.20
2018-10-17T11:37:45.005Z,6.37
2018-10-17T11:40:17.459Z,6.70
2018-10-17T11:42:49.332Z,6.63
2018-10-17T11:45:21.148Z,6.97
2018-10-17T11:47:53.010Z,7.00
2018-10-17T11:50:24.956Z,7.03
2018-10-17T11:52:57.393Z,6.40
2018-10-17T11:55:29.446Z,6.20
2018-10-17T11:58:02.124Z,6.03
2018-10-17T12:00:34.289Z,6.13
2018-10-17T12:03:06.323Z,6.23
2018-10-17T12:05:38.628Z,6.33
2018-10-17T12:08:10.775Z,6.60
2018-10-17T12:10:42.906Z,5.10
2018-10-17T12:13:15.113Z,4.87
2018-10-17T12:15:47.773Z,4.90
2018-10-17T12:18:20.306Z,4.80
2018-10-17T12:20:52.705Z,4.50
2018-10-17T12:23:25.603Z,4.80
2018-10-17T12:25:57.695Z,4.53
2018-10-17T12:28:30.465Z,5.47
2018-10-17T12:31:02.922Z,5.43
2018-10-17T12:33:35.433Z,5.47
2018-10-17T12:36:07.971Z,5.97
2018-10-17T12:38:40.473Z,5.90
2018-10-17T12:41:12.926Z,5.70
2018-10-17T12:56:20.899Z,6.83
2018-10-17T12:58:53.630Z,6.37
2018-10-17T13:01:26.034Z,6.33
2018-10-17T13:03:58.370Z,6.60
2018-10-17T13:06:30.618Z,6.40
2018-10-17T13:09:03.859Z,7.13
2018-10-17T13:11:36.575Z,7.40
2018-10-17T13:14:08.839Z,6.90
2018-10-17T13:16:41.153Z,6.90
2018-10-17T13:19:13.345Z,7.53
2018-10-17T13:21:46.228Z,7.07
2018-10-17T13:24:18.779Z,7.87
2018-10-17T13:26:51.759Z,7.83
2018-10-17T13:29:23.827Z,7.40
2018-10-17T13:31:56.088Z,7.77
2018-10-17T13:34:28.445Z,7.33
2018-10-17T13:37:00.564Z,8.27
2018-10-17T13:39:32.527Z,7.13
2018-10-17T13:42:05.312Z,8.30
2018-10-17T13:44:37.804Z,7.60
2018-10-17T13:47:10.204Z,8.13
2018-10-17T13:49:42.962Z,7.60
2018-10-17T13:52:15.144Z,7.80
2018-10-17T13:54:47.962Z,7.73
2018-10-17T13:57:20.024Z,7.03
2018-10-17T13:59:52.425Z,8.93
2018-10-17T14:02:25.453Z,9.50
2018-10-17T14:04:58.102Z,10.83
2018-10-17T14:07:30.626Z,6.87
2018-10-17T14:10:03.053Z,6.57
2018-10-17T14:12:36.049Z,6.70
2018-10-17T14:15:08.842Z,7.93
2018-10-17T14:17:41.146Z,6.70
2018-10-17T14:20:13.837Z,7.20
2018-10-17T14:22:46.312Z,7.20
2018-10-17T14:25:18.365Z,7.33
2018-10-17T14:27:50.589Z,7.17
2018-10-17T14:30:23.058Z,6.73
2018-10-17T14:32:55.912Z,7.57
2018-10-17T14:35:27.723Z,7.00
2018-10-17T14:37:59.972Z,7.30
2018-10-17T14:40:32.817Z,8.03
2018-10-17T14:43:05.228Z,7.27
2018-10-17T14:45:37.317Z,7.13
2018-10-17T14:48:09.632Z,6.97
2018-10-17T14:50:41.757Z,7.20
2018-10-17T14:53:13.861Z,8.17
2018-10-17T14:55:45.795Z,7.23
2018-10-17T14:58:17.942Z,6.97
2018-10-17T15:00:50.047Z,6.80
2018-10-17T15:03:21.981Z,7.07
2018-10-17T15:05:53.943Z,7.10
2018-10-17T15:08:26.118Z,7.37
2018-10-17T15:10:58.672Z,7.23
2018-10-17T15:13:30.869Z,7.77
2018-10-17T15:16:03.029Z,7.50
2018-10-17T15:18:35.180Z,7.17
2018-10-17T15:21:07.318Z,7.53
2018-10-17T15:23:39.210Z,7.77
2018-10-17T15:26:11.417Z,7.60
2018-10-17T15:28:44.424Z,7.50
2018-10-17T15:31:16.599Z,7.40
2018-10-17T15:33:48.566Z,7.60
2018-10-17T15:36:20.928Z,8.33
2018-10-17T15:38:52.903Z,7.87
2018-10-17T15:41:24.591Z,8.00
2018-10-17T15:43:56.505Z,8.67
2018-10-17T15:46:29.369Z,8.57
2018-10-17T15:49:01.090Z,9.50
2018-10-17T15:51:34.145Z,8.53
2018-10-17T15:54:06.184Z,9.33
2018-10-17T15:56:38.192Z,9.37
2018-10-17T15:59:10.117Z,9.13
2018-10-17T16:01:41.985Z,9.27
2018-10-17T16:04:14.012Z,9.23
2018-10-17T16:06:46.542Z,8.20
2018-10-17T16:09:18.366Z,9.20
2018-10-17T16:11:49.780Z,9.00
2018-10-17T16:14:21.878Z,10.37
2018-10-17T16:16:54.164Z,9.60
2018-10-17T16:19:26.473Z,9.07
2018-10-17T16:21:58.804Z,9.40
2018-10-17T16:24:30.770Z,9.37
2018-10-17T16:27:03.100Z,86.63
2018-10-17T16:29:35.534Z,19.17
2018-10-17T16:32:08.045Z,12.73
2018-10-17T16:34:40.394Z,21.03
2018-10-17T16:37:12.649Z,13.57
2018-10-17T16:39:44.673Z,10.97
2018-10-17T16:42:16.658Z,10.57
2018-10-17T16:44:49.026Z,10.83
2018-10-17T16:47:20.612Z,9.80
2018-10-17T16:49:52.828Z,9.97
2018-10-17T16:52:24.858Z,10.70
2018-10-17T16:54:57.353Z,12.20
2018-10-17T16:57:29.572Z,11.57
2018-10-17T17:00:02.026Z,11.27
2018-10-17T17:02:34.513Z,13.37
2018-10-17T17:05:08.415Z,21.90
2018-10-17T17:07:40.175Z,16.77
2018-10-17T17:10:14.337Z,13.37
2018-10-17T17:12:46.801Z,11.50
2018-10-17T17:15:19.247Z,11.17
2018-10-17T17:17:52.044Z,10.10
2018-10-17T17:20:24.066Z,12.13
2018-10-17T17:22:56.696Z,11.83
2018-10-17T17:25:28.644Z,11.37
2018-10-17T17:28:00.899Z,11.53
2018-10-17T17:30:33.099Z,12.93
2018-10-17T17:33:05.482Z,12.67
2018-10-17T17:35:37.832Z,26.97
2018-10-17T17:38:11.122Z,21.03
2018-10-17T17:40:43.195Z,16.37
2018-10-17T17:43:15.689Z,16.93
2018-10-17T17:45:48.318Z,10.87
2018-10-17T17:48:21.218Z,9.27
2018-10-17T17:50:53.988Z,10.33
2018-10-17T17:53:26.393Z,9.67
2018-10-17T17:55:59.598Z,9.70
2018-10-17T17:58:32.211Z,9.67
2018-10-17T18:01:05.019Z,10.10
2018-10-17T18:03:37.535Z,10.27
2018-10-17T18:06:09.895Z,10.37
2018-10-17T18:08:42.140Z,10.10
2018-10-17T18:11:24.285Z,10.67
2018-10-17T18:13:57.850Z,10.33
2018-10-17T18:16:30.163Z,10.70
2018-10-17T18:19:02.566Z,10.17
2018-10-17T18:21:35.415Z,10.70
2018-10-17T18:24:07.260Z,10.10
2018-10-17T18:26:39.528Z,9.73
2018-10-17T18:29:11.891Z,10.20
2018-10-17T18:31:44.415Z,11.33
2018-10-17T18:34:16.915Z,11.27
2018-10-17T18:36:49.761Z,11.57
2018-10-17T18:39:22.039Z,12.43
2018-10-17T18:41:54.166Z,12.00
2018-10-17T18:44:26.314Z,12.27
2018-10-17T18:46:58.765Z,12.93
2018-10-17T18:49:31.526Z,12.97
2018-10-17T18:52:05.231Z,13.53
2018-10-17T18:54:37.374Z,13.70
2018-10-17T18:57:10.478Z,13.23
2018-10-17T18:59:42.814Z,13.07
2018-10-17T19:02:14.444Z,12.43
2018-10-17T19:04:46.865Z,12.47
2018-10-17T19:07:19.151Z,12.83
2018-10-17T19:09:51.434Z,13.10
2018-10-17T19:12:23.321Z,13.20
2018-10-17T19:14:55.991Z,13.00
2018-10-17T19:17:28.658Z,13.37
2018-10-17T19:20:00.116Z,13.20
2018-10-17T19:22:32.064Z,12.73
2018-10-17T19:25:04.170Z,13.17
2018-10-17T19:27:36.328Z,14.50
2018-10-17T19:30:10.009Z,13.80
2018-10-17T19:32:42.034Z,13.10
2018-10-17T19:35:15.465Z,13.40
2018-10-17T19:37:47.624Z,14.00
2018-10-17T19:40:19.664Z,14.20
2018-10-17T19:42:51.915Z,13.37
2018-10-17T19:45:24.106Z,14.10
2018-10-17T19:47:56.255Z,13.87
2018-10-17T19:50:28.746Z,12.90
2018-10-17T19:53:00.912Z,13.60
2018-10-17T19:55:33.037Z,13.90
2018-10-17T19:58:05.277Z,13.87
2018-10-17T20:00:37.704Z,13.67
2018-10-17T20:03:10.706Z,13.27
2018-10-17T20:05:42.847Z,13.70
2018-10-17T20:08:15.152Z,15.07
2018-10-17T20:10:47.269Z,14.13
2018-10-17T20:13:19.373Z,13.17
2018-10-17T20:15:51.437Z,15.07
2018-10-17T20:18:23.274Z,13.67
2018-10-17T20:20:55.207Z,13.37
2018-10-17T20:23:27.728Z,12.97
2018-10-17T20:25:59.669Z,13.50
2018-10-17T20:28:31.857Z,14.90
2018-10-17T20:31:03.902Z,14.47
2018-10-17T20:33:36.342Z,14.57
2018-10-17T20:36:09.193Z,14.03
2018-10-17T20:38:41.319Z,14.57
2018-10-17T20:41:13.643Z,15.07
2018-10-17T20:43:45.743Z,14.80
2018-10-17T20:46:18.281Z,14.33
2018-10-17T20:48:50.487Z,15.03
2018-10-17T20:51:22.388Z,14.90
2018-10-17T20:53:54.646Z,14.67
2018-10-17T20:56:26.504Z,15.23
2018-10-17T20:58:58.971Z,15.33
2018-10-17T21:01:31.053Z,15.57
2018-10-17T21:04:03.305Z,14.50
2018-10-17T21:06:36.770Z,13.83
2018-10-17T21:09:13.214Z,15.17
2018-10-17T21:11:45.256Z,15.33
2018-10-17T21:14:17.478Z,15.20
2018-10-17T21:16:50.448Z,14.73
2018-10-17T21:19:23.669Z,16.07
2018-10-17T21:21:56.210Z,14.93
2018-10-17T21:24:28.217Z,15.00
2018-10-17T21:27:00.444Z,13.53
2018-10-17T21:29:32.458Z,12.90
2018-10-17T21:32:04.765Z,14.90
2018-10-17T21:34:36.723Z,13.57
2018-10-17T22:39:38.266Z,13.40
2018-10-17T22:42:10.529Z,13.83
2018-10-17T22:44:42.328Z,14.33
2018-10-17T22:47:14.794Z,13.57
2018-10-17T22:49:50.344Z,13.50
2018-10-17T22:52:21.984Z,17.23
2018-10-17T22:54:53.836Z,15.93
2018-10-17T22:57:25.614Z,17.70
2018-10-17T22:59:57.801Z,15.50
2018-10-17T23:02:29.779Z,15.27
2018-10-17T23:05:01.651Z,15.07
2018-10-17T23:07:33.603Z,14.83
2018-10-17T23:10:05.543Z,15.03
2018-10-17T23:12:37.926Z,14.63
2018-10-17T23:15:15.632Z,14.23
2018-10-17T23:17:48.276Z,15.60
2018-10-17T23:20:20.156Z,16.07
2018-10-17T23:22:52.071Z,16.50
2018-10-17T23:25:24.163Z,16.50
2018-10-17T23:27:56.388Z,15.20
2018-10-17T23:30:29.410Z,16.03
2018-10-17T23:33:01.224Z,15.87
2018-10-17T23:35:33.178Z,16.70
2018-10-17T23:38:05.436Z,15.87
2018-10-17T23:40:37.399Z,16.30
2018-10-17T23:43:10.410Z,15.47
2018-10-17T23:45:42.433Z,16.13
2018-10-17T23:48:14.349Z,16.03
2018-10-17T23:50:46.116Z,16.33
2018-10-17T23:53:18.065Z,17.00
2018-10-17T23:55:50.311Z,15.93
2018-10-17T23:58:22.504Z,15.40
